createdAt,value
2023-04-07T00:00:06.006Z,43.70
2023-04-07T00:02:33.242Z,43.67
2023-04-07T00:05:00.170Z,44.94
2023-04-07T00:07:26.902Z,44.74
2023-04-07T00:09:53.507Z,45.84
2023-04-07T00:12:20.637Z,46.43
2023-04-07T00:14:47.253Z,45.10
2023-04-07T00:17:13.842Z,45.57
2023-04-07T00:19:40.548Z,44.17
2023-04-07T00:22:07.140Z,44.23
2023-04-07T00:24:34.831Z,44.22
2023-04-07T00:27:02.170Z,44.75
2023-04-07T00:29:28.809Z,45.31
2023-04-07T00:31:55.429Z,46.52
2023-04-07T00:34:22.072Z,45.50
2023-04-07T00:36:52.220Z,46.10
2023-04-07T00:39:19.479Z,48.02
2023-04-07T00:41:46.814Z,46.64
2023-04-07T00:44:14.144Z,45.43
2023-04-07T00:46:41.628Z,44.21
2023-04-07T00:49:11.098Z,44.90
2023-04-07T00:51:38.199Z,44.96
2023-04-07T00:54:05.549Z,45.46
2023-04-07T00:56:32.417Z,44.74
2023-04-07T00:58:59.082Z,43.94
2023-04-07T01:01:31.685Z,44.87
2023-04-07T01:04:04.456Z,46.00
2023-04-07T01:06:36.751Z,46.45
2023-04-07T01:09:42.900Z,46.60
2023-04-07T01:12:43.098Z,45.23
2023-04-07T01:15:12.309Z,46.39
2023-04-07T01:17:45.068Z,46.76
2023-04-07T01:20:16.517Z,46.29
2023-04-07T01:22:47.079Z,46.41
2023-04-07T01:25:31.405Z,47.79
2023-04-07T01:28:22.288Z,46.69
2023-04-07T01:30:51.289Z,45.39
2023-04-07T01:33:18.949Z,46.48
2023-04-07T01:35:46.931Z,45.88
2023-04-07T01:38:14.367Z,45.25
2023-04-07T01:40:41.709Z,44.10
2023-04-07T01:43:09.066Z,43.33
2023-04-07T01:45:36.513Z,42.77
2023-04-07T01:48:07.019Z,42.60
2023-04-07T01:50:34.511Z,41.10
2023-04-07T01:53:01.971Z,40.39
2023-04-07T01:55:28.911Z,41.75
2023-04-07T01:57:55.488Z,43.08
2023-04-07T02:00:22.732Z,44.36
2023-04-07T02:02:52.342Z,44.14
2023-04-07T02:05:21.898Z,44.76
2023-04-07T02:08:06.339Z,43.90
2023-04-07T02:10:36.322Z,44.14
2023-04-07T02:13:06.532Z,42.97
2023-04-07T02:15:34.125Z,42.51
2023-04-07T02:18:02.382Z,41.45
2023-04-07T02:20:30.689Z,41.48
2023-04-07T02:22:57.586Z,41.59
2023-04-07T02:25:30.359Z,41.86
2023-04-07T02:27:58.857Z,41.25
2023-04-07T02:30:26.364Z,41.35
2023-04-07T02:32:53.713Z,42.85
2023-04-07T02:35:21.208Z,42.24
2023-04-07T02:37:48.070Z,41.98
2023-04-07T02:40:15.006Z,42.70
2023-04-07T02:42:42.058Z,41.45
2023-04-07T02:45:09.912Z,41.85
2023-04-07T02:47:37.532Z,41.21
2023-04-07T02:50:04.785Z,41.01
2023-04-07T02:52:31.450Z,40.81
2023-04-07T02:54:58.001Z,41.66
2023-04-07T02:57:24.568Z,40.94
2023-04-07T02:59:51.438Z,42.27
2023-04-07T03:02:18.122Z,42.86
2023-04-07T03:04:44.806Z,43.67
2023-04-07T03:07:11.679Z,44.29
2023-04-07T03:09:38.308Z,43.36
2023-04-07T03:12:04.940Z,42.76
2023-04-07T03:14:31.547Z,42.77
2023-04-07T03:16:58.160Z,43.14
2023-04-07T03:19:24.884Z,43.08
2023-04-07T03:21:51.715Z,42.88
2023-04-07T03:24:18.574Z,41.67
2023-04-07T03:26:45.284Z,41.56
2023-04-07T03:29:11.972Z,42.77
2023-04-07T03:31:38.912Z,43.85
2023-04-07T03:34:05.584Z,42.62
2023-04-07T03:36:32.159Z,41.67
2023-04-07T03:38:58.835Z,41.86
2023-04-07T03:41:25.490Z,42.51
2023-04-07T03:43:52.404Z,42.91
2023-04-07T03:46:22.362Z,43.26
2023-04-07T03:48:49.205Z,43.13
2023-04-07T03:51:16.239Z,42.34
2023-04-07T03:53:42.888Z,43.15
2023-04-07T03:56:09.904Z,42.66
2023-04-07T03:58:36.816Z,43.74
2023-04-07T04:01:03.581Z,42.60
2023-04-07T04:03:30.425Z,43.48
2023-04-07T04:05:57.134Z,43.85
2023-04-07T04:08:24.121Z,43.89
2023-04-07T04:10:51.317Z,42.53
2023-04-07T04:13:17.917Z,42.68
2023-04-07T04:15:44.567Z,44.38
2023-04-07T04:18:11.636Z,43.68
2023-04-07T04:20:38.284Z,43.66
2023-04-07T04:23:04.890Z,43.52
2023-04-07T04:25:31.447Z,43.78
2023-04-07T04:27:58.074Z,43.03
2023-04-07T04:30:24.805Z,43.01
2023-04-07T04:32:51.614Z,43.31
2023-04-07T04:35:18.388Z,42.29
2023-04-07T04:37:45.126Z,42.05
2023-04-07T04:40:12.472Z,41.92
2023-04-07T04:42:39.392Z,42.47
2023-04-07T04:45:07.053Z,42.19
2023-04-07T04:47:33.791Z,41.43
2023-04-07T04:50:00.544Z,42.42
2023-04-07T04:52:27.412Z,42.53
2023-04-07T04:54:55.189Z,41.64
2023-04-07T04:57:21.766Z,41.30
2023-04-07T04:59:48.491Z,40.43
2023-04-07T05:02:15.408Z,41.71
2023-04-07T05:04:42.160Z,40.50
2023-04-07T05:07:08.808Z,40.35
2023-04-07T05:09:35.397Z,40.16
2023-04-07T05:12:02.659Z,41.05
2023-04-07T05:14:29.303Z,41.03
2023-04-07T05:16:55.951Z,41.33
2023-04-07T05:19:22.597Z,41.10
2023-04-07T05:21:49.178Z,40.68
2023-04-07T05:24:15.889Z,41.01
2023-04-07T05:26:42.546Z,41.17
2023-04-07T05:29:09.106Z,41.69
2023-04-07T05:31:37.649Z,41.34
2023-04-07T05:34:04.379Z,41.35
2023-04-07T05:36:31.791Z,39.75
2023-04-07T05:38:58.479Z,40.17
2023-04-07T05:41:25.031Z,40.13
2023-04-07T05:43:51.920Z,39.71
2023-04-07T05:46:18.764Z,39.10
2023-04-07T05:48:45.573Z,39.83
2023-04-07T05:51:12.208Z,39.64
2023-04-07T05:53:40.534Z,38.97
2023-04-07T05:56:07.360Z,40.14
2023-04-07T05:58:33.997Z,40.33
2023-04-07T06:01:00.559Z,39.11
2023-04-07T06:03:27.256Z,39.00
2023-04-07T06:05:53.886Z,40.01
2023-04-07T06:08:20.587Z,39.44
2023-04-07T06:10:47.185Z,39.50
2023-04-07T06:13:14.034Z,39.25
2023-04-07T06:15:40.641Z,38.90
2023-04-07T06:18:07.243Z,38.35
2023-04-07T06:20:33.841Z,38.07
2023-04-07T06:23:00.464Z,38.06
2023-04-07T06:25:27.254Z,38.27
2023-04-07T06:27:55.693Z,38.03
2023-04-07T06:30:22.373Z,37.91
2023-04-07T06:32:49.000Z,38.25
2023-04-07T06:35:16.084Z,39.42
2023-04-07T06:37:42.773Z,39.95
2023-04-07T06:40:09.786Z,37.80
2023-04-07T06:42:36.492Z,37.11
2023-04-07T06:45:04.182Z,38.24
2023-04-07T06:47:30.862Z,38.21
2023-04-07T06:49:57.595Z,38.43
2023-04-07T06:52:24.197Z,37.71
2023-04-07T06:54:50.864Z,37.26
2023-04-07T06:57:17.435Z,36.55
2023-04-07T06:59:44.294Z,35.98
2023-04-07T07:02:11.053Z,36.72
2023-04-07T07:04:37.922Z,36.07
2023-04-07T07:07:04.581Z,36.03
2023-04-07T07:09:31.443Z,37.14
2023-04-07T07:11:58.057Z,37.18
2023-04-07T07:14:24.662Z,36.18
2023-04-07T07:16:51.275Z,35.35
2023-04-07T07:19:17.841Z,35.81
2023-04-07T07:21:44.477Z,35.48
2023-04-07T07:24:11.020Z,37.16
2023-04-07T07:26:37.635Z,36.46
2023-04-07T07:29:04.238Z,36.46
2023-04-07T07:31:31.616Z,35.55
2023-04-07T07:33:58.432Z,34.74
2023-04-07T07:36:25.180Z,36.07
2023-04-07T07:38:51.941Z,36.09
2023-04-07T07:41:18.720Z,35.37
2023-04-07T07:43:45.494Z,36.12
2023-04-07T07:46:12.325Z,35.83
2023-04-07T07:48:39.103Z,35.76
2023-04-07T07:51:06.187Z,36.57
2023-04-07T07:53:32.751Z,36.45
2023-04-07T07:55:59.444Z,36.23
2023-04-07T07:58:26.143Z,37.20
2023-04-07T08:00:52.802Z,36.63
2023-04-07T08:03:22.615Z,36.91
2023-04-07T08:05:50.436Z,36.64
2023-04-07T08:08:17.026Z,35.74
2023-04-07T08:10:43.855Z,34.88
2023-04-07T08:13:10.734Z,35.26
2023-04-07T08:15:37.328Z,35.60
2023-04-07T08:18:06.468Z,34.85
2023-04-07T08:20:33.818Z,34.70
2023-04-07T08:23:02.236Z,35.30
2023-04-07T08:25:29.797Z,35.31
2023-04-07T08:27:56.568Z,35.30
2023-04-07T08:30:23.316Z,35.83
2023-04-07T08:32:50.150Z,35.75
2023-04-07T08:35:16.824Z,35.46
2023-04-07T08:37:44.558Z,35.87
2023-04-07T08:40:12.410Z,36.51
2023-04-07T08:42:43.039Z,37.16
2023-04-07T08:45:10.124Z,35.95
2023-04-07T08:47:38.504Z,36.86
2023-04-07T08:50:07.943Z,34.80
2023-04-07T08:52:37.531Z,34.84
2023-04-07T08:55:06.742Z,35.15
2023-04-07T08:57:34.100Z,36.50
2023-04-07T09:00:08.201Z,34.85
2023-04-07T09:02:37.781Z,35.52
2023-04-07T09:05:06.713Z,35.94
2023-04-07T09:07:35.444Z,34.71
2023-04-07T09:10:02.588Z,34.58
2023-04-07T09:12:30.712Z,34.50
2023-04-07T09:14:58.124Z,34.34
2023-04-07T09:17:28.725Z,34.77
2023-04-07T09:20:00.051Z,33.72
2023-04-07T09:22:47.389Z,34.13
2023-04-07T09:25:27.560Z,34.07
2023-04-07T09:28:02.028Z,33.56
2023-04-07T09:30:30.483Z,34.27
2023-04-07T09:32:58.482Z,35.28
2023-04-07T09:35:25.241Z,34.92
2023-04-07T09:38:09.301Z,34.37
2023-04-07T09:40:37.429Z,35.43
2023-04-07T09:43:05.458Z,35.62
2023-04-07T09:45:36.209Z,36.82
2023-04-07T09:48:08.012Z,36.52
2023-04-07T09:50:42.074Z,35.67
2023-04-07T09:53:08.704Z,35.63
2023-04-07T09:55:36.327Z,35.09
2023-04-07T09:58:04.556Z,34.96
2023-04-07T10:00:31.253Z,35.39
2023-04-07T10:02:58.888Z,34.93
2023-04-07T10:05:25.837Z,35.14
2023-04-07T10:07:53.206Z,33.77
2023-04-07T10:10:19.951Z,35.01
2023-04-07T10:12:49.678Z,33.55
2023-04-07T10:15:16.399Z,33.68
2023-04-07T10:17:50.009Z,33.56
2023-04-07T10:20:22.836Z,34.39
2023-04-07T10:22:53.828Z,34.82
2023-04-07T10:25:24.667Z,35.01
2023-04-07T10:27:54.867Z,33.92
2023-04-07T10:30:25.465Z,34.05
2023-04-07T10:32:54.292Z,34.60
2023-04-07T10:35:22.288Z,34.45
2023-04-07T10:38:07.927Z,34.58
2023-04-07T10:40:35.891Z,33.77
2023-04-07T10:43:03.265Z,34.09
2023-04-07T10:45:56.099Z,34.45
2023-04-07T10:48:23.403Z,35.16
2023-04-07T10:51:05.001Z,36.97
2023-04-07T10:53:31.848Z,37.55
2023-04-07T10:56:00.367Z,37.97
2023-04-07T10:58:31.087Z,37.18
2023-04-07T11:01:00.796Z,37.89
2023-04-07T11:03:29.823Z,37.78
2023-04-07T11:06:09.590Z,37.77
2023-04-07T11:08:45.663Z,37.25
2023-04-07T11:11:16.162Z,37.99
2023-04-07T11:13:43.361Z,38.05
2023-04-07T11:16:10.819Z,37.92
2023-04-07T11:18:38.090Z,38.13
2023-04-07T11:21:06.840Z,38.40
2023-04-07T11:23:44.552Z,38.09
2023-04-07T11:26:13.218Z,38.03
2023-04-07T11:28:53.073Z,37.65
2023-04-07T11:31:27.606Z,36.70
2023-04-07T11:33:59.394Z,36.52
2023-04-07T11:36:34.198Z,36.01
2023-04-07T11:39:03.052Z,36.83
2023-04-07T11:41:32.888Z,36.97
2023-04-07T11:44:12.730Z,37.86
2023-04-07T11:46:59.830Z,36.85
2023-04-07T11:49:28.611Z,36.81
2023-04-07T11:52:09.477Z,37.82
2023-04-07T11:54:47.454Z,39.41
2023-04-07T11:57:14.864Z,39.58
2023-04-07T11:59:41.953Z,39.99
2023-04-07T12:02:08.832Z,40.96
2023-04-07T12:04:37.902Z,39.36
2023-04-07T12:07:10.781Z,38.84
2023-04-07T12:09:38.329Z,39.30
2023-04-07T12:12:07.839Z,39.48
2023-04-07T12:14:35.278Z,39.45
2023-04-07T12:17:03.619Z,39.86
2023-04-07T12:19:39.743Z,39.21
2023-04-07T12:22:06.537Z,38.65
2023-04-07T12:24:33.111Z,39.57
2023-04-07T12:27:00.194Z,40.00
2023-04-07T12:29:26.933Z,39.15
2023-04-07T12:31:53.609Z,39.42
2023-04-07T12:34:20.736Z,39.05
2023-04-07T12:36:47.538Z,38.49
2023-04-07T12:39:15.176Z,38.70
2023-04-07T12:41:42.154Z,39.82
2023-04-07T12:44:08.768Z,38.68
2023-04-07T12:46:35.371Z,38.13
2023-04-07T12:49:02.792Z,39.73
2023-04-07T12:51:29.417Z,40.62
2023-04-07T12:53:56.062Z,39.96
2023-04-07T12:56:22.787Z,40.42
2023-04-07T12:58:49.442Z,39.68
2023-04-07T13:01:16.845Z,39.38
2023-04-07T13:03:44.058Z,39.59
2023-04-07T13:06:11.755Z,39.03
2023-04-07T13:08:39.566Z,39.42
2023-04-07T13:11:06.595Z,39.49
2023-04-07T13:13:33.902Z,39.76
2023-04-07T13:16:00.998Z,39.36
2023-04-07T13:18:32.834Z,40.19
2023-04-07T13:21:33.716Z,41.26
2023-04-07T13:23:46.581Z,41.11
2023-04-07T13:26:13.224Z,40.29
2023-04-07T13:28:39.910Z,40.87
2023-04-07T13:31:07.671Z,41.25
2023-04-07T13:33:34.912Z,40.36
2023-04-07T13:36:02.307Z,39.37
2023-04-07T13:38:29.046Z,41.66
2023-04-07T13:40:55.646Z,41.47
2023-04-07T13:43:22.269Z,39.95
2023-04-07T13:45:49.467Z,39.81
2023-04-07T13:48:16.195Z,39.94
2023-04-07T13:50:42.792Z,41.06
2023-04-07T13:53:09.502Z,41.88
2023-04-07T13:55:36.812Z,41.93
2023-04-07T13:58:03.435Z,43.32
2023-04-07T14:00:30.266Z,43.18
2023-04-07T14:02:57.213Z,43.18
2023-04-07T14:05:24.751Z,44.53
2023-04-07T14:07:51.609Z,43.37
2023-04-07T14:10:18.349Z,42.83
2023-04-07T14:12:45.042Z,42.65
2023-04-07T14:15:11.888Z,44.74
2023-04-07T14:17:38.614Z,44.16
2023-04-07T14:20:06.137Z,44.85
2023-04-07T14:22:32.762Z,44.15
2023-04-07T14:24:59.730Z,44.76
2023-04-07T14:27:26.428Z,45.38
2023-04-07T14:29:54.130Z,45.43
2023-04-07T14:32:20.920Z,45.20
2023-04-07T14:34:47.907Z,45.83
2023-04-07T14:37:16.183Z,45.18
2023-04-07T14:39:45.887Z,46.16
2023-04-07T14:42:22.514Z,46.77
2023-04-07T14:44:49.842Z,45.76
2023-04-07T14:47:16.481Z,46.04
2023-04-07T14:49:43.159Z,45.90
2023-04-07T14:52:10.506Z,47.34
2023-04-07T14:54:37.379Z,48.47
2023-04-07T14:57:04.004Z,48.37
2023-04-07T14:59:30.624Z,47.87
2023-04-07T15:01:57.319Z,48.52
2023-04-07T15:04:24.126Z,48.35
2023-04-07T15:06:50.945Z,47.32
2023-04-07T15:09:19.035Z,46.65
2023-04-07T15:11:48.541Z,47.36
2023-04-07T15:14:15.424Z,47.39
2023-04-07T15:16:42.180Z,47.08
2023-04-07T15:19:08.867Z,47.33
2023-04-07T15:21:35.696Z,47.82
2023-04-07T15:24:02.318Z,48.14
2023-04-07T15:26:28.939Z,48.29
2023-04-07T15:28:55.761Z,48.53
2023-04-07T15:31:23.513Z,47.19
2023-04-07T15:33:51.029Z,47.93
2023-04-07T15:36:17.589Z,46.41
2023-04-07T15:38:44.226Z,47.13
2023-04-07T15:41:14.688Z,47.74
2023-04-07T15:43:41.282Z,47.39
2023-04-07T15:46:08.061Z,48.05
2023-04-07T15:48:34.655Z,47.93
2023-04-07T15:51:01.283Z,47.98
2023-04-07T15:53:27.899Z,48.83
2023-04-07T15:55:54.944Z,47.81
2023-04-07T15:58:21.544Z,48.92
2023-04-07T16:00:48.219Z,49.98
2023-04-07T16:03:15.150Z,48.99
2023-04-07T16:05:42.019Z,48.54
2023-04-07T16:08:08.638Z,49.17
2023-04-07T16:10:35.295Z,48.62
2023-04-07T16:13:01.875Z,48.57
2023-04-07T16:15:39.246Z,47.23
2023-04-07T16:18:10.134Z,48.28
2023-04-07T16:20:36.753Z,49.03
2023-04-07T16:23:03.484Z,50.72
2023-04-07T16:25:31.307Z,49.96
2023-04-07T16:27:58.185Z,49.27
2023-04-07T16:30:25.441Z,49.65
2023-04-07T16:32:52.372Z,48.44
2023-04-07T16:35:19.629Z,48.51
2023-04-07T16:37:46.589Z,49.09
2023-04-07T16:40:13.991Z,48.86
2023-04-07T16:42:40.992Z,49.41
2023-04-07T16:45:08.265Z,49.06
2023-04-07T16:47:35.465Z,49.21
2023-04-07T16:50:04.039Z,48.34
2023-04-07T16:52:31.009Z,48.17
2023-04-07T16:54:58.215Z,48.38
2023-04-07T16:57:24.824Z,48.51
2023-04-07T16:59:51.446Z,48.01
2023-04-07T17:02:18.182Z,47.81
2023-04-07T17:04:44.985Z,46.98
2023-04-07T17:07:12.076Z,46.99
2023-04-07T17:09:39.461Z,49.22
2023-04-07T17:12:06.496Z,47.98
2023-04-07T17:14:33.549Z,48.90
2023-04-07T17:17:00.914Z,49.32
2023-04-07T17:19:27.770Z,48.52
2023-04-07T17:21:54.407Z,48.44
2023-04-07T17:24:21.169Z,47.94
2023-04-07T17:26:47.998Z,47.76
2023-04-07T17:29:15.670Z,47.09
2023-04-07T17:31:42.507Z,47.01
2023-04-07T17:34:09.133Z,46.68
2023-04-07T17:36:37.603Z,46.94
2023-04-07T17:39:05.162Z,46.77
2023-04-07T17:41:34.566Z,46.83
2023-04-07T17:44:02.308Z,47.04
2023-04-07T17:46:29.370Z,46.83
2023-04-07T17:49:00.325Z,46.23
2023-04-07T17:51:27.669Z,46.68
2023-04-07T17:53:54.963Z,46.51
2023-04-07T17:56:21.687Z,46.33
2023-04-07T17:58:48.523Z,46.72
2023-04-07T18:01:15.830Z,46.66
2023-04-07T18:03:42.935Z,47.85
2023-04-07T18:06:09.749Z,46.94
2023-04-07T18:08:36.650Z,47.48
2023-04-07T18:11:05.911Z,48.27
2023-04-07T18:13:34.035Z,47.62
2023-04-07T18:16:00.848Z,47.36
2023-04-07T18:18:27.614Z,47.02
2023-04-07T18:20:54.265Z,47.28
2023-04-07T18:23:20.849Z,46.66
2023-04-07T18:25:47.593Z,46.73
2023-04-07T18:28:14.250Z,46.97
2023-04-07T18:30:40.835Z,47.96
2023-04-07T18:33:07.598Z,47.15
2023-04-07T18:35:34.489Z,46.51
2023-04-07T18:38:01.142Z,46.33
2023-04-07T18:40:30.018Z,46.76
2023-04-07T18:42:56.686Z,46.36
2023-04-07T18:45:23.343Z,46.61
2023-04-07T18:47:51.254Z,46.98
2023-04-07T18:50:18.299Z,48.23
2023-04-07T18:52:44.918Z,48.53
2023-04-07T18:55:11.531Z,48.66
2023-04-07T18:57:39.462Z,48.40
2023-04-07T19:00:06.723Z,48.23
2023-04-07T19:02:33.584Z,49.15
2023-04-07T19:05:00.371Z,49.35
2023-04-07T19:07:26.994Z,49.39
2023-04-07T19:09:53.914Z,49.36
2023-04-07T19:12:20.924Z,49.46
2023-04-07T19:14:47.530Z,49.62
2023-04-07T19:17:14.243Z,50.27
2023-04-07T19:19:40.888Z,50.35
2023-04-07T19:22:07.553Z,50.90
2023-04-07T19:24:34.273Z,52.57
2023-04-07T19:27:02.228Z,51.59
2023-04-07T19:29:29.304Z,52.22
2023-04-07T19:31:57.404Z,53.37
2023-04-07T19:34:24.104Z,52.14
2023-04-07T19:36:50.767Z,50.70
2023-04-07T19:39:17.406Z,50.38
2023-04-07T19:41:44.028Z,53.92
2023-04-07T19:44:10.921Z,51.41
2023-04-07T19:46:37.675Z,52.41
2023-04-07T19:49:04.267Z,52.31
2023-04-07T19:51:31.144Z,51.49
2023-04-07T19:53:57.813Z,50.46
2023-04-07T19:56:25.152Z,49.61
2023-04-07T19:58:51.885Z,49.70
2023-04-07T20:01:19.236Z,49.59
2023-04-07T20:03:46.838Z,49.20
2023-04-07T20:06:15.114Z,48.72
2023-04-07T20:08:42.355Z,47.88
2023-04-07T20:11:13.035Z,49.26
2023-04-07T20:13:41.184Z,48.87
2023-04-07T20:16:08.297Z,48.47
2023-04-07T20:18:34.977Z,48.92
2023-04-07T20:21:02.843Z,48.65
2023-04-07T20:23:29.584Z,48.81
2023-04-07T20:25:56.470Z,49.11
2023-04-07T20:28:23.422Z,48.93
2023-04-07T20:30:50.580Z,48.94
2023-04-07T20:33:17.287Z,49.62
2023-04-07T20:35:44.104Z,49.24
2023-04-07T20:38:11.170Z,49.98
2023-04-07T20:40:37.867Z,49.67
2023-04-07T20:43:05.541Z,49.61
2023-04-07T20:45:33.174Z,50.38
2023-04-07T20:48:00.240Z,51.07
2023-04-07T20:50:28.521Z,51.18
2023-04-07T20:52:55.170Z,51.52
2023-04-07T20:55:21.877Z,51.65
2023-04-07T20:57:50.267Z,51.14
2023-04-07T21:00:18.777Z,51.16
2023-04-07T21:02:46.951Z,51.60
2023-04-07T21:05:13.889Z,51.73
2023-04-07T21:07:40.603Z,51.55
2023-04-07T21:10:08.743Z,50.82
2023-04-07T21:12:35.952Z,49.96
2023-04-07T21:15:02.554Z,50.00
2023-04-07T21:17:29.252Z,49.61
2023-04-07T21:19:55.989Z,49.76
2023-04-07T21:22:22.582Z,49.79
2023-04-07T21:24:49.216Z,49.67
2023-04-07T21:27:16.564Z,50.74
2023-04-07T21:29:43.224Z,51.40
2023-04-07T21:32:10.622Z,52.14
2023-04-07T21:34:37.335Z,52.52
2023-04-07T21:37:04.007Z,52.65
2023-04-07T21:39:30.935Z,51.97
2023-04-07T21:41:57.653Z,51.05
2023-04-07T21:44:24.308Z,50.69
2023-04-07T21:46:51.324Z,50.28
2023-04-07T21:49:21.984Z,49.89
2023-04-07T21:51:49.343Z,50.30
2023-04-07T21:54:16.071Z,49.52
2023-04-07T21:56:43.040Z,49.71
2023-04-07T21:59:09.614Z,50.46
2023-04-07T22:01:36.385Z,50.68
2023-04-07T22:04:03.058Z,51.88
2023-04-07T22:06:29.748Z,52.26
2023-04-07T22:09:01.869Z,52.13
2023-04-07T22:11:29.572Z,52.61
2023-04-07T22:13:56.145Z,52.46
2023-04-07T22:16:22.848Z,51.89
2023-04-07T22:18:49.753Z,52.02
2023-04-07T22:21:18.024Z,51.61
2023-04-07T22:23:44.942Z,51.76
2023-04-07T22:26:11.668Z,51.91
2023-04-07T22:28:38.285Z,53.67
2023-04-07T22:31:05.179Z,52.99
2023-04-07T22:33:31.801Z,52.70
2023-04-07T22:35:58.489Z,51.83
2023-04-07T22:38:25.377Z,51.31
2023-04-07T22:40:52.005Z,51.99
2023-04-07T22:43:18.855Z,51.72
2023-04-07T22:45:45.583Z,51.29
2023-04-07T22:48:12.694Z,51.33
2023-04-07T22:50:39.468Z,51.38
2023-04-07T22:53:07.427Z,51.25
2023-04-07T22:55:34.827Z,51.04
2023-04-07T22:58:02.225Z,50.71
2023-04-07T23:00:28.910Z,51.09
2023-04-07T23:02:55.819Z,50.97
2023-04-07T23:05:22.709Z,51.67
2023-04-07T23:07:51.347Z,51.75
2023-04-07T23:10:18.064Z,52.07
2023-04-07T23:12:44.680Z,51.70
2023-04-07T23:15:11.482Z,51.95
2023-04-07T23:17:38.118Z,51.77
2023-04-07T23:20:05.218Z,51.16
2023-04-07T23:22:31.862Z,51.52
2023-04-07T23:24:58.422Z,51.96
2023-04-07T23:27:25.038Z,51.67
2023-04-07T23:29:51.752Z,52.48
2023-04-07T23:32:18.530Z,53.39
2023-04-07T23:34:45.131Z,52.12
2023-04-07T23:37:11.745Z,53.23
2023-04-07T23:39:39.169Z,53.38
2023-04-07T23:42:05.804Z,53.57
2023-04-07T23:44:32.379Z,53.55
2023-04-07T23:46:58.998Z,53.88
2023-04-07T23:49:26.154Z,53.44
2023-04-07T23:51:52.806Z,53.83
2023-04-07T23:54:19.383Z,53.68
2023-04-07T23:56:46.035Z,54.33
2023-04-07T23:59:13.346Z,53.95
